PTR2217 CYTZ-CYTZ
Flight info
| Callsign | PTR2217 |
|---|---|
| Flight time | N/A |
| Altitude | 1700 |
| Route | CYTZ/08 VFR DP TO E |
| Aircraft | DH8D |
Departure
| Time | 2026-04-26 14:38 |
|---|---|
| Airport | Billy Bishop Toronto City Airport (CYTZ) |
Arrival
| Time | N/A |
|---|---|
| Airport | Billy Bishop Toronto City Airport (CYTZ) |
| Time | Latitude | Longitude | Altitude | Speed | Heading |
|---|---|---|---|---|---|
| 2026-04-26 14:31 | 43.63082 | -79.39829 | 240 ft | 0 kts | 94° |
| 2026-04-26 14:35 | 43.63081 | -79.39825 | 240 ft | 2 kts | 94° |
| 2026-04-26 14:35 | 43.63066 | -79.39780 | 239 ft | 12 kts | 133° |
| 2026-04-26 14:35 | 43.63019 | -79.39713 | 237 ft | 1 kts | 155° |
| 2026-04-26 14:36 | 43.62972 | -79.39790 | 237 ft | 19 kts | 259° |
| 2026-04-26 14:36 | 43.62936 | -79.39958 | 239 ft | 21 kts | 251° |
| 2026-04-26 14:36 | 43.62970 | -79.40128 | 240 ft | 21 kts | 283° |
| 2026-04-26 14:36 | 43.62849 | -79.40302 | 241 ft | 20 kts | 222° |
| 2026-04-26 14:37 | 43.62823 | -79.40328 | 241 ft | 0 kts | 193° |
| 2026-04-26 14:37 | 43.62779 | -79.40314 | 241 ft | 20 kts | 138° |
| 2026-04-26 14:37 | 43.62839 | -79.39954 | 238 ft | 84 kts | 71° |
| 2026-04-26 14:38 | 43.63086 | -79.38817 | 490 ft | 150 kts | 75° |
| 2026-04-26 14:38 | 43.63439 | -79.37273 | 1017 ft | 190 kts | 72° |
| 2026-04-26 14:38 | 43.63875 | -79.35347 | 1321 ft | 227 kts | 73° |
| 2026-04-26 14:38 | 43.64361 | -79.33188 | 1411 ft | 233 kts | 72° |
| 2026-04-26 14:39 | 43.64824 | -79.31166 | 1426 ft | 214 kts | 72° |
| 2026-04-26 14:39 | 43.65251 | -79.29275 | 1427 ft | 196 kts | 72° |
| 2026-04-26 14:39 | 43.65642 | -79.27550 | 1428 ft | 178 kts | 72° |
| 2026-04-26 14:39 | 43.65771 | -79.25960 | 1411 ft | 161 kts | 107° |
| 2026-04-26 14:40 | 43.65042 | -79.25030 | 1396 ft | 142 kts | 171° |
| 2026-04-26 14:40 | 43.64118 | -79.25417 | 1603 ft | 147 kts | 213° |
| 2026-04-26 14:40 | 43.63190 | -79.26407 | 1540 ft | 186 kts | 219° |
| 2026-04-26 14:40 | 43.62134 | -79.27626 | 1503 ft | 205 kts | 220° |
| 2026-04-26 14:41 | 43.60994 | -79.28950 | 1482 ft | 218 kts | 220° |
| 2026-04-26 14:41 | 43.59874 | -79.30251 | 1456 ft | 207 kts | 219° |
| 2026-04-26 14:41 | 43.58803 | -79.31495 | 1438 ft | 191 kts | 220° |
| 2026-04-26 14:41 | 43.57794 | -79.32667 | 1449 ft | 193 kts | 220° |
| 2026-04-26 14:42 | 43.56758 | -79.33876 | 1455 ft | 195 kts | 220° |
| 2026-04-26 14:42 | 43.55703 | -79.35106 | 1456 ft | 198 kts | 219° |
| 2026-04-26 14:42 | 43.54647 | -79.36336 | 1456 ft | 201 kts | 220° |
| 2026-04-26 14:42 | 43.53576 | -79.37584 | 1458 ft | 204 kts | 220° |
| 2026-04-26 14:43 | 43.52489 | -79.38850 | 1458 ft | 206 kts | 220° |
| 2026-04-26 14:43 | 43.51393 | -79.40127 | 1452 ft | 202 kts | 221° |
| 2026-04-26 14:43 | 43.50359 | -79.41324 | 1446 ft | 191 kts | 220° |
| 2026-04-26 14:43 | 43.49342 | -79.42509 | 1454 ft | 193 kts | 221° |
| 2026-04-26 14:44 | 43.48318 | -79.43720 | 1453 ft | 193 kts | 223° |
| 2026-04-26 14:44 | 43.47693 | -79.45293 | 1438 ft | 188 kts | 268° |
| 2026-04-26 14:44 | 43.48035 | -79.46948 | 1458 ft | 180 kts | 301° |
| 2026-04-26 14:44 | 43.48669 | -79.48450 | 1468 ft | 190 kts | 303° |
| 2026-04-26 14:45 | 43.49372 | -79.50056 | 1464 ft | 198 kts | 303° |
| 2026-04-26 14:45 | 43.49852 | -79.51150 | 1460 ft | 202 kts | 303° |
| 2026-04-26 14:45 | 43.50824 | -79.53154 | 1422 ft | 171 kts | 321° |
| 2026-04-26 14:45 | 43.51812 | -79.53519 | 1412 ft | 140 kts | 17° |
| 2026-04-26 14:46 | 43.52730 | -79.53031 | 1404 ft | 143 kts | 24° |
| 2026-04-26 14:46 | 43.53629 | -79.52471 | 1051 ft | 150 kts | 27° |
| 2026-04-26 14:46 | 43.54689 | -79.51744 | 651 ft | 186 kts | 29° |
| 2026-04-26 14:46 | 43.55918 | -79.50813 | 809 ft | 213 kts | 30° |
| 2026-04-26 14:47 | 43.57217 | -79.49793 | 1358 ft | 218 kts | 30° |
| 2026-04-26 14:47 | 43.58513 | -79.48663 | 1832 ft | 224 kts | 40° |
| 2026-04-26 14:47 | 43.59566 | -79.47029 | 1730 ft | 225 kts | 53° |
| 2026-04-26 14:47 | 43.60453 | -79.45355 | 1238 ft | 203 kts | 54° |
| 2026-04-26 14:48 | 43.61223 | -79.43873 | 897 ft | 181 kts | 56° |
| 2026-04-26 14:48 | 43.61941 | -79.42471 | 740 ft | 190 kts | 56° |
| 2026-04-26 14:48 | 43.62686 | -79.40971 | 710 ft | 185 kts | 58° |
| 2026-04-26 14:48 | 43.63129 | -79.39407 | 684 ft | 168 kts | 75° |
| 2026-04-26 14:49 | 43.63494 | -79.37830 | 758 ft | 185 kts | 72° |
| 2026-04-26 14:49 | 43.63911 | -79.36087 | 989 ft | 197 kts | 73° |
| 2026-04-26 14:49 | 43.64337 | -79.34236 | 1324 ft | 201 kts | 72° |
| 2026-04-26 14:49 | 43.64799 | -79.32452 | 1770 ft | 198 kts | 68° |
| 2026-04-26 14:50 | 43.65368 | -79.30570 | 1357 ft | 229 kts | 69° |
| 2026-04-26 14:50 | 43.65844 | -79.28626 | 1684 ft | 204 kts | 71° |
| 2026-04-26 14:50 | 43.66265 | -79.26816 | 1843 ft | 189 kts | 72° |
| 2026-04-26 14:50 | 43.66603 | -79.25164 | 2237 ft | 181 kts | 83° |
| 2026-04-26 14:51 | 43.66271 | -79.23473 | 2772 ft | 196 kts | 122° |
| 2026-04-26 14:51 | 43.65155 | -79.22363 | 3326 ft | 208 kts | 160° |
| 2026-04-26 14:51 | 43.63714 | -79.22369 | 3852 ft | 210 kts | 196° |
| 2026-04-26 14:51 | 43.62488 | -79.23369 | 4382 ft | 201 kts | 215° |
| 2026-04-26 14:52 | 43.61357 | -79.24469 | 4711 ft | 205 kts | 214° |
| 2026-04-26 14:52 | 43.60137 | -79.25623 | 4780 ft | 217 kts | 213° |
| 2026-04-26 14:52 | 43.58850 | -79.26829 | 4592 ft | 229 kts | 214° |
| 2026-04-26 14:52 | 43.57534 | -79.28072 | 4505 ft | 232 kts | 214° |
| 2026-04-26 14:53 | 43.56201 | -79.29329 | 4468 ft | 231 kts | 214° |
| 2026-04-26 14:53 | 43.54870 | -79.30584 | 4457 ft | 230 kts | 214° |
| 2026-04-26 14:53 | 43.53542 | -79.31836 | 4456 ft | 227 kts | 214° |
| 2026-04-26 14:53 | 43.52276 | -79.33025 | 4445 ft | 214 kts | 214° |
| 2026-04-26 14:54 | 43.51090 | -79.34143 | 4432 ft | 201 kts | 214° |
| 2026-04-26 14:54 | 43.49979 | -79.35194 | 4430 ft | 186 kts | 214° |
| 2026-04-26 14:54 | 43.48896 | -79.36227 | 4451 ft | 202 kts | 214° |
| 2026-04-26 14:54 | 43.47678 | -79.37396 | 4468 ft | 223 kts | 214° |
| 2026-04-26 14:55 | 43.46376 | -79.38635 | 4477 ft | 230 kts | 214° |
| 2026-04-26 14:55 | 43.45050 | -79.39896 | 4465 ft | 229 kts | 214° |
| 2026-04-26 14:55 | 43.43750 | -79.41126 | 4459 ft | 221 kts | 214° |
| 2026-04-26 14:55 | 43.42522 | -79.42292 | 4464 ft | 213 kts | 214° |
| 2026-04-26 14:56 | 43.41322 | -79.43434 | 4448 ft | 206 kts | 214° |
| 2026-04-26 14:56 | 43.40155 | -79.44544 | 4450 ft | 201 kts | 214° |
| 2026-04-26 14:56 | 43.39015 | -79.45627 | 4457 ft | 198 kts | 214° |
| 2026-04-26 14:56 | 43.37898 | -79.46688 | 4455 ft | 194 kts | 216° |
| 2026-04-26 14:57 | 43.37092 | -79.48090 | 4462 ft | 186 kts | 254° |
| 2026-04-26 14:57 | 43.36816 | -79.49898 | 4496 ft | 203 kts | 264° |
| 2026-04-26 14:57 | 43.36624 | -79.51874 | 4471 ft | 212 kts | 265° |
| 2026-04-26 14:57 | 43.36438 | -79.53919 | 4475 ft | 218 kts | 265° |
| 2026-04-26 14:58 | 43.36251 | -79.56021 | 4465 ft | 223 kts | 265° |
| 2026-04-26 14:58 | 43.36063 | -79.58133 | 4466 ft | 225 kts | 265° |
| 2026-04-26 14:58 | 43.35871 | -79.60284 | 4466 ft | 227 kts | 265° |
| 2026-04-26 14:58 | 43.35680 | -79.62418 | 4463 ft | 228 kts | 265° |
| 2026-04-26 14:59 | 43.35486 | -79.64584 | 4460 ft | 229 kts | 265° |
| 2026-04-26 14:59 | 43.35293 | -79.66666 | 4148 ft | 211 kts | 264° |
| 2026-04-26 14:59 | 43.35106 | -79.68651 | 3743 ft | 210 kts | 264° |
| 2026-04-26 14:59 | 43.34982 | -79.70019 | 3493 ft | 226 kts | 264° |
| 2026-04-26 15:00 | 43.34720 | -79.72990 | 3115 ft | 241 kts | 264° |
| 2026-04-26 15:00 | 43.34515 | -79.75259 | 3018 ft | 237 kts | 264° |
| 2026-04-26 15:00 | 43.34313 | -79.77487 | 2982 ft | 230 kts | 264° |
| 2026-04-26 15:00 | 43.34119 | -79.79630 | 2966 ft | 223 kts | 264° |
| 2026-04-26 15:01 | 43.33927 | -79.81720 | 2961 ft | 220 kts | 264° |
| 2026-04-26 15:01 | 43.33736 | -79.83801 | 2966 ft | 218 kts | 264° |
| 2026-04-26 15:01 | 43.33548 | -79.85856 | 2967 ft | 216 kts | 264° |
| 2026-04-26 15:01 | 43.33361 | -79.87905 | 2974 ft | 215 kts | 264° |
| 2026-04-26 15:02 | 43.33176 | -79.89925 | 2966 ft | 214 kts | 264° |
| 2026-04-26 15:02 | 43.32990 | -79.91988 | 2971 ft | 221 kts | 264° |
| 2026-04-26 15:02 | 43.32797 | -79.94135 | 2972 ft | 227 kts | 264° |
| 2026-04-26 15:02 | 43.32601 | -79.96287 | 2972 ft | 231 kts | 264° |
| 2026-04-26 15:03 | 43.32398 | -79.98508 | 2976 ft | 234 kts | 264° |
| 2026-04-26 15:03 | 43.32194 | -80.00732 | 2971 ft | 237 kts | 264° |
| 2026-04-26 15:03 | 43.31987 | -80.02980 | 2972 ft | 238 kts | 264° |
| 2026-04-26 15:03 | 43.31777 | -80.05249 | 2972 ft | 240 kts | 264° |
| 2026-04-26 15:04 | 43.31567 | -80.07499 | 2973 ft | 241 kts | 264° |
| 2026-04-26 15:04 | 43.31353 | -80.09794 | 2973 ft | 241 kts | 264° |
| 2026-04-26 15:04 | 43.31088 | -80.12051 | 2960 ft | 243 kts | 256° |
| 2026-04-26 15:04 | 43.30151 | -80.13927 | 2962 ft | 241 kts | 216° |
| 2026-04-26 15:05 | 43.28649 | -80.14847 | 2973 ft | 230 kts | 197° |
| 2026-04-26 15:05 | 43.27645 | -80.15278 | 2969 ft | 226 kts | 195° |
| 2026-04-26 15:05 | 43.25678 | -80.16090 | 2964 ft | 218 kts | 194° |
| 2026-04-26 15:05 | 43.24210 | -80.16390 | 2947 ft | 209 kts | 169° |
| 2026-04-26 15:06 | 43.23035 | -80.15457 | 2959 ft | 192 kts | 124° |
| 2026-04-26 15:06 | 43.22414 | -80.13887 | 2954 ft | 194 kts | 111° |
| 2026-04-26 15:06 | 43.21883 | -80.12100 | 2860 ft | 211 kts | 107° |
| 2026-04-26 15:06 | 43.21417 | -80.10197 | 2714 ft | 207 kts | 105° |
| 2026-04-26 15:07 | 43.20663 | -80.06567 | 2392 ft | 189 kts | 102° |
| 2026-04-26 15:07 | 43.20321 | -80.04739 | 2249 ft | 208 kts | 102° |
| 2026-04-26 15:07 | 43.19907 | -80.02814 | 1961 ft | 210 kts | 106° |
| 2026-04-26 15:08 | 43.19443 | -80.00939 | 1740 ft | 206 kts | 106° |
| 2026-04-26 15:08 | 43.18974 | -79.99083 | 1441 ft | 205 kts | 107° |
| 2026-04-26 15:08 | 43.18490 | -79.97283 | 1184 ft | 201 kts | 108° |
| 2026-04-26 15:08 | 43.18074 | -79.95470 | 931 ft | 194 kts | 103° |
| 2026-04-26 15:09 | 43.17719 | -79.93842 | 796 ft | 162 kts | 104° |
| 2026-04-26 15:09 | 43.17361 | -79.92290 | 1050 ft | 188 kts | 105° |
| 2026-04-26 15:09 | 43.16960 | -79.90584 | 1930 ft | 193 kts | 105° |
| 2026-04-26 15:09 | 43.16343 | -79.88958 | 2852 ft | 206 kts | 130° |
| 2026-04-26 15:10 | 43.15065 | -79.88049 | 3770 ft | 219 kts | 165° |
| 2026-04-26 15:10 | 43.14012 | -79.88032 | 4116 ft | 239 kts | 186° |
| 2026-04-26 15:10 | 43.12043 | -79.89477 | 4380 ft | 247 kts | 226° |
| 2026-04-26 15:10 | 43.11245 | -79.91444 | 4420 ft | 231 kts | 255° |
| 2026-04-26 15:11 | 43.10869 | -79.93523 | 4438 ft | 217 kts | 258° |
| 2026-04-26 15:11 | 43.10518 | -79.95456 | 4439 ft | 205 kts | 258° |
| 2026-04-26 15:11 | 43.10177 | -79.97315 | 4437 ft | 194 kts | 258° |
| 2026-04-26 15:11 | 43.09848 | -79.99065 | 4443 ft | 192 kts | 258° |
| 2026-04-26 15:12 | 43.09519 | -80.00840 | 4450 ft | 195 kts | 258° |
| 2026-04-26 15:12 | 43.09185 | -80.02665 | 4453 ft | 198 kts | 258° |
| 2026-04-26 15:12 | 43.08854 | -80.04494 | 4456 ft | 201 kts | 258° |
| 2026-04-26 15:12 | 43.08518 | -80.06368 | 4458 ft | 204 kts | 258° |
| 2026-04-26 15:13 | 43.08180 | -80.08251 | 4457 ft | 206 kts | 258° |
| 2026-04-26 15:13 | 43.07835 | -80.10174 | 4449 ft | 208 kts | 258° |
| 2026-04-26 15:13 | 43.07490 | -80.12112 | 4450 ft | 211 kts | 258° |
| 2026-04-26 15:13 | 43.07146 | -80.14047 | 4457 ft | 212 kts | 258° |
| 2026-04-26 15:14 | 43.06899 | -80.16042 | 4444 ft | 211 kts | 275° |
| 2026-04-26 15:14 | 43.07362 | -80.17882 | 4451 ft | 202 kts | 310° |
| 2026-04-26 15:14 | 43.08271 | -80.19326 | 4450 ft | 202 kts | 315° |
| 2026-04-26 15:14 | 43.09208 | -80.20760 | 4451 ft | 203 kts | 317° |
| 2026-04-26 15:15 | 43.10202 | -80.22132 | 4450 ft | 204 kts | 319° |
| 2026-04-26 15:15 | 43.11227 | -80.23510 | 4450 ft | 205 kts | 319° |
| 2026-04-26 15:15 | 43.12241 | -80.24869 | 4450 ft | 206 kts | 320° |
| 2026-04-26 15:15 | 43.13268 | -80.26245 | 4451 ft | 207 kts | 319° |
| 2026-04-26 15:16 | 43.14316 | -80.27647 | 4447 ft | 208 kts | 320° |
| 2026-04-26 15:16 | 43.15337 | -80.29015 | 4445 ft | 206 kts | 319° |
| 2026-04-26 15:16 | 43.16362 | -80.30389 | 4445 ft | 205 kts | 320° |
| 2026-04-26 15:16 | 43.17374 | -80.31747 | 4444 ft | 203 kts | 319° |
| 2026-04-26 15:17 | 43.18437 | -80.33158 | 4469 ft | 227 kts | 320° |
| 2026-04-26 15:17 | 43.19214 | -80.34177 | 4463 ft | 240 kts | 319° |
| 2026-04-26 15:17 | 43.20846 | -80.36352 | 4436 ft | 240 kts | 319° |
| 2026-04-26 15:17 | 43.21995 | -80.37907 | 4424 ft | 223 kts | 319° |
| 2026-04-26 15:18 | 43.23081 | -80.39373 | 4433 ft | 221 kts | 319° |
| 2026-04-26 15:18 | 43.24189 | -80.40863 | 4382 ft | 220 kts | 319° |
| 2026-04-26 15:18 | 43.25264 | -80.42314 | 4147 ft | 217 kts | 319° |
| 2026-04-26 15:18 | 43.26334 | -80.43758 | 3896 ft | 216 kts | 319° |
| 2026-04-26 15:19 | 43.27401 | -80.45196 | 3644 ft | 215 kts | 319° |
| 2026-04-26 15:19 | 43.28472 | -80.46641 | 3391 ft | 214 kts | 319° |
| 2026-04-26 15:19 | 43.29538 | -80.48077 | 3143 ft | 216 kts | 319° |
| 2026-04-26 15:19 | 43.30618 | -80.49532 | 3021 ft | 221 kts | 319° |
| 2026-04-26 15:20 | 43.31736 | -80.51034 | 2975 ft | 224 kts | 319° |
| 2026-04-26 15:20 | 43.32975 | -80.52279 | 2951 ft | 214 kts | 335° |
| 2026-04-26 15:20 | 43.34302 | -80.53142 | 2950 ft | 210 kts | 339° |
| 2026-04-26 15:20 | 43.35628 | -80.53972 | 2948 ft | 208 kts | 339° |
| 2026-04-26 15:21 | 43.36937 | -80.54792 | 2948 ft | 206 kts | 339° |
| 2026-04-26 15:21 | 43.38240 | -80.55565 | 2942 ft | 203 kts | 346° |
| 2026-04-26 15:21 | 43.39571 | -80.55463 | 2938 ft | 192 kts | 29° |
| 2026-04-26 15:21 | 43.40449 | -80.54150 | 2954 ft | 185 kts | 60° |
| 2026-04-26 15:22 | 43.41015 | -80.52693 | 2864 ft | 162 kts | 62° |
| 2026-04-26 15:22 | 43.41498 | -80.51392 | 2677 ft | 145 kts | 63° |
| 2026-04-26 15:22 | 43.41962 | -80.50102 | 2447 ft | 160 kts | 64° |
| 2026-04-26 15:22 | 43.42467 | -80.48654 | 2159 ft | 177 kts | 65° |
| 2026-04-26 15:23 | 43.43016 | -80.47064 | 1906 ft | 190 kts | 65° |
| 2026-04-26 15:23 | 43.43619 | -80.45316 | 1773 ft | 215 kts | 65° |
| 2026-04-26 15:23 | 43.44282 | -80.43388 | 1644 ft | 226 kts | 65° |
| 2026-04-26 15:23 | 43.44953 | -80.41434 | 1494 ft | 225 kts | 65° |
| 2026-04-26 15:24 | 43.45597 | -80.39498 | 1255 ft | 213 kts | 65° |
| 2026-04-26 15:24 | 43.46175 | -80.37829 | 1088 ft | 177 kts | 65° |
| 2026-04-26 15:24 | 43.46677 | -80.36337 | 1167 ft | 187 kts | 66° |
| 2026-04-26 15:24 | 43.47205 | -80.34647 | 2037 ft | 192 kts | 67° |
| 2026-04-26 15:25 | 43.47694 | -80.33018 | 3024 ft | 195 kts | 68° |
| 2026-04-26 15:25 | 43.48228 | -80.31123 | 3044 ft | 219 kts | 68° |
| 2026-04-26 15:25 | 43.48758 | -80.29274 | 2540 ft | 198 kts | 68° |
| 2026-04-26 15:25 | 43.49260 | -80.27567 | 1904 ft | 186 kts | 68° |
| 2026-04-26 15:26 | 43.49751 | -80.25902 | 1990 ft | 196 kts | 68° |
| 2026-04-26 15:26 | 43.50270 | -80.24117 | 2393 ft | 205 kts | 68° |
| 2026-04-26 15:26 | 43.50803 | -80.22289 | 2749 ft | 213 kts | 68° |
| 2026-04-26 15:26 | 43.51339 | -80.20312 | 2917 ft | 225 kts | 72° |
| 2026-04-26 15:27 | 43.51747 | -80.18197 | 2947 ft | 235 kts | 71° |
| 2026-04-26 15:27 | 43.52467 | -80.16139 | 3072 ft | 237 kts | 59° |
| 2026-04-26 15:27 | 43.53337 | -80.14151 | 2914 ft | 246 kts | 60° |
| 2026-04-26 15:27 | 43.54233 | -80.12192 | 2948 ft | 229 kts | 50° |
| 2026-04-26 15:28 | 43.55467 | -80.11077 | 2899 ft | 205 kts | 14° |
| 2026-04-26 15:28 | 43.56899 | -80.11410 | 2942 ft | 225 kts | 333° |
| 2026-04-26 15:28 | 43.57982 | -80.13053 | 2967 ft | 248 kts | 300° |
| 2026-04-26 15:28 | 43.58313 | -80.15424 | 2972 ft | 254 kts | 270° |
| 2026-04-26 15:29 | 43.58146 | -80.17829 | 2955 ft | 255 kts | 263° |
| 2026-04-26 15:29 | 43.57840 | -80.20241 | 2949 ft | 254 kts | 260° |
| 2026-04-26 15:29 | 43.56987 | -80.24963 | 2952 ft | 253 kts | 255° |
| 2026-04-26 15:30 | 43.55960 | -80.29562 | 2957 ft | 252 kts | 253° |
| 2026-04-26 15:30 | 43.55404 | -80.31853 | 2954 ft | 252 kts | 252° |
| 2026-04-26 15:30 | 43.54827 | -80.34144 | 2951 ft | 251 kts | 251° |
| 2026-04-26 15:31 | 43.54244 | -80.36398 | 2949 ft | 246 kts | 251° |
| 2026-04-26 15:31 | 43.53114 | -80.40649 | 2948 ft | 230 kts | 250° |
| 2026-04-26 15:31 | 43.52570 | -80.42669 | 2952 ft | 224 kts | 250° |
| 2026-04-26 15:32 | 43.51667 | -80.45983 | 2951 ft | 218 kts | 250° |
| 2026-04-26 15:32 | 43.50959 | -80.48562 | 2953 ft | 214 kts | 250° |
| 2026-04-26 15:32 | 43.50440 | -80.50452 | 2953 ft | 212 kts | 251° |
| 2026-04-26 15:33 | 43.49917 | -80.52363 | 2955 ft | 215 kts | 251° |
| 2026-04-26 15:33 | 43.49386 | -80.54301 | 2955 ft | 216 kts | 250° |
| 2026-04-26 15:33 | 43.48855 | -80.56226 | 2956 ft | 217 kts | 250° |
| 2026-04-26 15:33 | 43.48311 | -80.58176 | 2953 ft | 218 kts | 249° |
| 2026-04-26 15:34 | 43.47409 | -80.59812 | 2943 ft | 217 kts | 212° |
| 2026-04-26 15:34 | 43.45984 | -80.60221 | 2947 ft | 209 kts | 168° |
| 2026-04-26 15:34 | 43.44628 | -80.59585 | 2955 ft | 207 kts | 154° |
| 2026-04-26 15:34 | 43.43303 | -80.58787 | 2953 ft | 208 kts | 153° |
| 2026-04-26 15:35 | 43.41974 | -80.57963 | 2949 ft | 209 kts | 152° |
| 2026-04-26 15:35 | 43.40849 | -80.56781 | 2938 ft | 202 kts | 120° |
| 2026-04-26 15:35 | 43.40617 | -80.54986 | 2950 ft | 193 kts | 78° |
| 2026-04-26 15:35 | 43.41065 | -80.53235 | 2967 ft | 193 kts | 67° |
| 2026-04-26 15:36 | 43.41593 | -80.51552 | 2959 ft | 194 kts | 66° |
| 2026-04-26 15:36 | 43.42147 | -80.49843 | 2890 ft | 199 kts | 66° |
| 2026-04-26 15:36 | 43.42725 | -80.48081 | 2569 ft | 200 kts | 65° |
| 2026-04-26 15:36 | 43.43299 | -80.46341 | 2240 ft | 199 kts | 66° |
| 2026-04-26 15:37 | 43.43865 | -80.44631 | 1940 ft | 198 kts | 66° |
| 2026-04-26 15:37 | 43.44430 | -80.42931 | 1658 ft | 196 kts | 66° |
| 2026-04-26 15:37 | 43.44998 | -80.41232 | 1382 ft | 195 kts | 66° |
| 2026-04-26 15:37 | 43.45565 | -80.39535 | 1125 ft | 195 kts | 66° |
| 2026-04-26 15:38 | 43.46217 | -80.37736 | 1294 ft | 219 kts | 61° |
| 2026-04-26 15:38 | 43.46866 | -80.35951 | 2170 ft | 201 kts | 71° |
| 2026-04-26 15:38 | 43.47338 | -80.34186 | 2663 ft | 212 kts | 65° |
| 2026-04-26 15:38 | 43.48033 | -80.32330 | 2986 ft | 221 kts | 63° |
| 2026-04-26 15:39 | 43.48823 | -80.30404 | 2897 ft | 230 kts | 54° |
| 2026-04-26 15:39 | 43.50064 | -80.29292 | 2672 ft | 207 kts | 11° |
| 2026-04-26 15:39 | 43.51407 | -80.29765 | 2880 ft | 207 kts | 327° |
| 2026-04-26 15:39 | 43.52022 | -80.30782 | 2914 ft | 214 kts | 299° |
| 2026-04-26 15:40 | 43.52359 | -80.33524 | 2950 ft | 223 kts | 273° |
| 2026-04-26 15:40 | 43.52280 | -80.35674 | 2953 ft | 228 kts | 263° |
| 2026-04-26 15:40 | 43.51938 | -80.37801 | 2956 ft | 230 kts | 257° |
| 2026-04-26 15:40 | 43.51536 | -80.39937 | 2957 ft | 231 kts | 257° |
| 2026-04-26 15:41 | 43.51123 | -80.42106 | 2956 ft | 233 kts | 256° |
| 2026-04-26 15:41 | 43.50714 | -80.44254 | 2955 ft | 235 kts | 256° |
| 2026-04-26 15:41 | 43.50378 | -80.46012 | 2955 ft | 236 kts | 256° |